createdAt,value
2023-02-01T00:00:55.804Z,101592.88
2023-02-01T00:03:22.186Z,101591.84
2023-02-01T00:05:59.353Z,101578.63
2023-02-01T00:08:25.705Z,101584.91
2023-02-01T00:11:09.857Z,101594.00
2023-02-01T00:13:40.625Z,101595.81
2023-02-01T00:16:09.383Z,101587.56
2023-02-01T00:18:36.334Z,101583.22
2023-02-01T00:21:03.331Z,101591.06
2023-02-01T00:23:29.761Z,101588.47
2023-02-01T00:25:56.099Z,101571.50
2023-02-01T00:28:22.421Z,101569.88
2023-02-01T00:30:57.186Z,101572.44
2023-02-01T00:33:24.297Z,101561.81
2023-02-01T00:35:50.627Z,101560.00
2023-02-01T00:38:17.696Z,101556.34
2023-02-01T00:40:44.020Z,101545.94
2023-02-01T00:43:10.347Z,101548.47
2023-02-01T00:45:36.661Z,101544.97
2023-02-01T00:48:02.998Z,101550.22
2023-02-01T00:50:29.455Z,101549.41
2023-02-01T00:52:56.256Z,101555.47
2023-02-01T00:55:22.642Z,101552.59
2023-02-01T00:57:48.958Z,101558.91
2023-02-01T01:00:17.320Z,101562.41
2023-02-01T01:02:43.668Z,101564.91
2023-02-01T01:05:09.999Z,101557.63
2023-02-01T01:07:37.246Z,101572.75
2023-02-01T01:10:03.809Z,101565.72
2023-02-01T01:12:32.238Z,101561.16
2023-02-01T01:14:58.578Z,101564.34
2023-02-01T01:17:24.892Z,101565.41
2023-02-01T01:19:51.235Z,101576.00
2023-02-01T01:22:18.792Z,101567.81
2023-02-01T01:24:45.100Z,101562.41
2023-02-01T01:27:11.656Z,101557.13
2023-02-01T01:29:38.041Z,101549.97
2023-02-01T01:32:04.538Z,101549.03
2023-02-01T01:34:30.975Z,101544.06
2023-02-01T01:36:57.641Z,101546.38
2023-02-01T01:39:24.005Z,101543.56
2023-02-01T01:41:50.400Z,101543.81
2023-02-01T01:44:58.643Z,101544.72
2023-02-01T01:47:29.764Z,101532.41
2023-02-01T01:49:56.428Z,101533.19
2023-02-01T01:52:23.382Z,101539.28
2023-02-01T01:54:53.551Z,101537.59
2023-02-01T01:57:27.966Z,101524.28
2023-02-01T02:00:03.312Z,101528.91
2023-02-01T02:02:42.717Z,101529.72
2023-02-01T02:05:10.429Z,101532.28
2023-02-01T02:07:40.849Z,101533.09
2023-02-01T02:10:11.556Z,101531.22
2023-02-01T02:12:44.890Z,101526.72
2023-02-01T02:15:13.449Z,101535.47
2023-02-01T02:17:58.970Z,101529.38
2023-02-01T02:20:45.893Z,101514.38
2023-02-01T02:23:42.830Z,101517.81
2023-02-01T02:26:35.934Z,101506.38
2023-02-01T02:29:38.801Z,101515.50
2023-02-01T02:32:43.776Z,101523.50
2023-02-01T02:35:13.211Z,101522.66
2023-02-01T02:38:05.991Z,101517.28
2023-02-01T02:40:43.063Z,101505.97
2023-02-01T02:43:38.079Z,101498.75
2023-02-01T02:46:45.416Z,101484.66
2023-02-01T02:49:30.037Z,101494.75
2023-02-01T02:52:24.484Z,101487.69
2023-02-01T02:54:52.875Z,101494.59
2023-02-01T02:57:47.495Z,101493.78
2023-02-01T03:00:36.985Z,101484.31
2023-02-01T03:03:22.322Z,101473.13
2023-02-01T03:05:51.461Z,101495.16
2023-02-01T03:08:26.576Z,101486.56
2023-02-01T03:11:08.081Z,101472.44
2023-02-01T03:13:50.323Z,101471.31
2023-02-01T03:16:28.896Z,101448.38
2023-02-01T03:19:04.682Z,101451.84
2023-02-01T03:21:51.971Z,101451.22
2023-02-01T03:24:44.628Z,101446.91
2023-02-01T03:27:20.075Z,101453.97
2023-02-01T03:30:06.613Z,101453.50
2023-02-01T03:32:55.314Z,101444.72
2023-02-01T03:35:46.640Z,101438.59
2023-02-01T03:38:41.926Z,101439.41
2023-02-01T03:41:16.497Z,101443.97
2023-02-01T03:43:55.881Z,101444.84
2023-02-01T03:46:28.905Z,101448.28
2023-02-01T03:48:56.397Z,101438.53
2023-02-01T03:51:25.570Z,101428.66
2023-02-01T03:53:53.669Z,101414.53
2023-02-01T03:56:22.783Z,101407.50
2023-02-01T03:58:59.717Z,101397.91
2023-02-01T04:01:31.541Z,101426.47
2023-02-01T04:03:59.785Z,101431.41
2023-02-01T04:06:26.853Z,101434.94
2023-02-01T04:08:56.632Z,101429.91
2023-02-01T04:11:23.003Z,101442.19
2023-02-01T04:13:49.351Z,101436.94
2023-02-01T04:16:15.762Z,101426.94
2023-02-01T04:18:42.245Z,101427.75
2023-02-01T04:21:08.573Z,101434.91
2023-02-01T04:23:34.960Z,101429.47
2023-02-01T04:26:02.961Z,101425.03
2023-02-01T04:28:29.479Z,101416.97
2023-02-01T04:30:56.196Z,101416.88
2023-02-01T04:33:22.593Z,101425.84
2023-02-01T04:35:49.323Z,101427.50
2023-02-01T04:38:15.763Z,101431.97
2023-02-01T04:40:42.085Z,101432.13
2023-02-01T04:43:08.935Z,101432.13
2023-02-01T04:45:35.271Z,101440.28
2023-02-01T04:48:01.588Z,101451.88
2023-02-01T04:50:28.101Z,101432.44
2023-02-01T04:52:54.483Z,101440.31
2023-02-01T04:55:20.805Z,101445.63
2023-02-01T04:57:47.236Z,101432.56
2023-02-01T05:00:14.160Z,101425.38
2023-02-01T05:02:40.588Z,101432.59
2023-02-01T05:05:07.155Z,101433.41
2023-02-01T05:07:33.532Z,101430.06
2023-02-01T05:09:59.863Z,101435.59
2023-02-01T05:12:44.566Z,101438.28
2023-02-01T05:15:11.937Z,101439.09
2023-02-01T05:17:38.400Z,101445.34
2023-02-01T05:20:05.330Z,101432.81
2023-02-01T05:22:31.649Z,101439.03
2023-02-01T05:24:57.986Z,101439.19
2023-02-01T05:27:24.461Z,101452.38
2023-02-01T05:29:50.761Z,101445.22
2023-02-01T05:32:22.574Z,101444.41
2023-02-01T05:34:49.702Z,101437.28
2023-02-01T05:37:16.061Z,101432.38
2023-02-01T05:39:42.428Z,101435.06
2023-02-01T05:42:08.757Z,101443.78
2023-02-01T05:44:35.079Z,101427.16
2023-02-01T05:47:01.419Z,101416.66
2023-02-01T05:49:27.765Z,101408.88
2023-02-01T05:51:54.102Z,101413.53
2023-02-01T05:54:20.416Z,101417.16
2023-02-01T05:56:46.747Z,101417.81
2023-02-01T05:59:13.222Z,101410.63
2023-02-01T06:01:39.556Z,101410.41
2023-02-01T06:04:05.904Z,101410.50
2023-02-01T06:06:32.365Z,101412.28
2023-02-01T06:08:58.772Z,101425.44
2023-02-01T06:11:32.310Z,101418.34
2023-02-01T06:13:59.812Z,101427.22
2023-02-01T06:16:26.267Z,101418.50
2023-02-01T06:18:52.899Z,101415.81
2023-02-01T06:21:24.522Z,101429.00
2023-02-01T06:23:52.780Z,101443.09
2023-02-01T06:26:19.292Z,101445.81
2023-02-01T06:28:45.701Z,101443.91
2023-02-01T06:31:12.845Z,101443.03
2023-02-01T06:33:39.962Z,101444.06
2023-02-01T06:36:09.061Z,101438.75
2023-02-01T06:38:36.923Z,101427.16
2023-02-01T06:41:04.283Z,101438.66
2023-02-01T06:43:31.508Z,101439.44
2023-02-01T06:46:02.957Z,101428.91
2023-02-01T06:48:30.323Z,101419.16
2023-02-01T06:50:57.036Z,101430.56
2023-02-01T06:53:23.395Z,101442.09
2023-02-01T06:56:00.759Z,101462.44
2023-02-01T06:58:32.056Z,101447.31
2023-02-01T07:00:59.113Z,101435.81
2023-02-01T07:03:25.487Z,101441.03
2023-02-01T07:05:56.563Z,101442.81
2023-02-01T07:08:22.880Z,101440.16
2023-02-01T07:10:49.210Z,101452.50
2023-02-01T07:13:15.520Z,101458.78
2023-02-01T07:15:41.896Z,101453.31
2023-02-01T07:18:08.200Z,101468.25
2023-02-01T07:20:34.590Z,101471.78
2023-02-01T07:23:01.004Z,101469.13
2023-02-01T07:25:27.312Z,101467.25
2023-02-01T07:27:53.646Z,101461.16
2023-02-01T07:30:20.146Z,101462.09
2023-02-01T07:32:46.564Z,101453.19
2023-02-01T07:35:13.080Z,101459.38
2023-02-01T07:37:39.482Z,101466.59
2023-02-01T07:40:06.672Z,101456.72
2023-02-01T07:42:33.072Z,101453.19
2023-02-01T07:45:07.898Z,101462.91
2023-02-01T07:47:41.258Z,101462.91
2023-02-01T07:50:08.743Z,101469.13
2023-02-01T07:52:35.070Z,101465.66
2023-02-01T07:55:01.439Z,101470.91
2023-02-01T07:57:27.957Z,101477.94
2023-02-01T08:00:12.662Z,101476.09
2023-02-01T08:02:39.183Z,101482.28
2023-02-01T08:05:06.501Z,101477.84
2023-02-01T08:07:32.897Z,101482.22
2023-02-01T08:09:59.468Z,101482.34
2023-02-01T08:12:26.537Z,101478.75
2023-02-01T08:14:52.875Z,101488.47
2023-02-01T08:17:19.250Z,101477.91
2023-02-01T08:19:45.583Z,101474.25
2023-02-01T08:22:11.923Z,101479.69
2023-02-01T08:24:41.281Z,101492.81
2023-02-01T08:27:07.608Z,101488.41
2023-02-01T08:29:33.944Z,101491.91
2023-02-01T08:32:00.380Z,101495.38
2023-02-01T08:34:26.921Z,101502.50
2023-02-01T08:36:58.229Z,101501.47
2023-02-01T08:39:25.383Z,101505.84
2023-02-01T08:42:10.256Z,101504.97
2023-02-01T08:44:37.295Z,101493.38
2023-02-01T08:47:04.269Z,101510.06
2023-02-01T08:49:30.685Z,101496.72
2023-02-01T08:52:00.948Z,101504.47
2023-02-01T08:54:30.305Z,101507.88
2023-02-01T08:56:57.278Z,101505.16
2023-02-01T08:59:23.675Z,101512.38
2023-02-01T09:01:50.441Z,101515.97
2023-02-01T09:04:16.900Z,101511.59
2023-02-01T09:06:43.261Z,101512.38
2023-02-01T09:09:09.591Z,101498.09
2023-02-01T09:11:35.936Z,101511.28
2023-02-01T09:14:02.439Z,101489.97
2023-02-01T09:16:28.940Z,101473.75
2023-02-01T09:19:14.841Z,101485.88
2023-02-01T09:21:42.786Z,101467.88
2023-02-01T09:24:11.556Z,101471.63
2023-02-01T09:26:38.527Z,101467.34
2023-02-01T09:29:10.863Z,101470.03
2023-02-01T09:31:40.023Z,101477.03
2023-02-01T09:34:07.422Z,101463.50
2023-02-01T09:36:34.970Z,101465.22
2023-02-01T09:39:02.334Z,101464.31
2023-02-01T09:41:59.380Z,101481.88
2023-02-01T09:44:52.093Z,101472.00
2023-02-01T09:47:22.567Z,101470.13
2023-02-01T09:50:03.457Z,101472.94
2023-02-01T09:52:44.113Z,101473.44
2023-02-01T09:55:28.551Z,101477.69
2023-02-01T09:58:01.179Z,101471.59
2023-02-01T10:00:36.120Z,101466.13
2023-02-01T10:03:03.011Z,101458.47
2023-02-01T10:05:56.969Z,101461.72
2023-02-01T10:08:36.163Z,101476.69
2023-02-01T10:11:25.193Z,101472.25
2023-02-01T10:14:01.041Z,101463.09
2023-02-01T10:16:41.283Z,101462.97
2023-02-01T10:19:50.293Z,101454.16
2023-02-01T10:23:16.020Z,101446.00
2023-02-01T10:25:34.913Z,101465.63
2023-02-01T10:28:02.825Z,101477.13
2023-02-01T10:30:39.469Z,101479.88
2023-02-01T10:33:24.369Z,101468.28
2023-02-01T10:35:57.349Z,101470.00
2023-02-01T10:38:28.197Z,101464.97
2023-02-01T10:41:00.817Z,101474.47
2023-02-01T10:43:27.297Z,101462.03
2023-02-01T10:45:53.786Z,101474.56
2023-02-01T10:48:20.655Z,101463.81
2023-02-01T10:51:00.737Z,101466.56
2023-02-01T10:53:40.763Z,101462.78
2023-02-01T10:56:11.881Z,101457.50
2023-02-01T10:58:48.635Z,101447.00
2023-02-01T11:01:29.095Z,101445.75
2023-02-01T11:04:00.687Z,101437.78
2023-02-01T11:06:48.512Z,101439.53
2023-02-01T11:09:21.933Z,101446.31
2023-02-01T11:11:48.219Z,101425.44
2023-02-01T11:14:18.959Z,101436.69
2023-02-01T11:16:51.354Z,101452.69
2023-02-01T11:19:18.728Z,101427.78
2023-02-01T11:21:49.814Z,101430.22
2023-02-01T11:24:24.518Z,101413.28
2023-02-01T11:26:51.698Z,101421.28
2023-02-01T11:29:23.100Z,101410.63
2023-02-01T11:31:50.890Z,101399.50
2023-02-01T11:34:21.839Z,101395.38
2023-02-01T11:36:50.563Z,101381.28
2023-02-01T11:39:30.947Z,101386.41
2023-02-01T11:42:14.751Z,101381.94
2023-02-01T11:44:46.242Z,101400.72
2023-02-01T11:47:24.603Z,101385.34
2023-02-01T11:49:53.644Z,101385.47
2023-02-01T11:52:41.649Z,101394.19
2023-02-01T11:55:14.386Z,101396.66
2023-02-01T11:58:03.839Z,101395.28
2023-02-01T12:00:48.123Z,101395.56
2023-02-01T12:03:42.128Z,101397.91
2023-02-01T12:06:28.126Z,101395.97
2023-02-01T12:09:12.393Z,101372.13
2023-02-01T12:11:57.558Z,101387.13
2023-02-01T12:14:43.117Z,101370.28
2023-02-01T12:17:37.974Z,101370.88
2023-02-01T12:20:24.579Z,101365.38
2023-02-01T12:23:15.834Z,101357.41
2023-02-01T12:26:06.656Z,101359.81
2023-02-01T12:28:45.088Z,101347.38
2023-02-01T12:31:24.724Z,101353.38
2023-02-01T12:33:56.976Z,101344.53
2023-02-01T12:36:46.071Z,101352.19
2023-02-01T12:39:33.767Z,101339.59
2023-02-01T12:42:12.417Z,101334.94
2023-02-01T12:44:53.016Z,101325.66
2023-02-01T12:47:31.949Z,101338.16
2023-02-01T12:50:22.464Z,101319.13
2023-02-01T12:52:51.834Z,101331.34
2023-02-01T12:55:37.476Z,101341.78
2023-02-01T12:58:21.313Z,101335.75
2023-02-01T13:01:19.181Z,101342.72
2023-02-01T13:03:56.525Z,101340.25
2023-02-01T13:06:29.206Z,101337.34
2023-02-01T13:09:33.307Z,101343.38
2023-02-01T13:12:27.535Z,101334.53
2023-02-01T13:14:57.447Z,101337.06
2023-02-01T13:17:28.732Z,101346.09
2023-02-01T13:20:00.405Z,101346.00
2023-02-01T13:22:32.270Z,101333.34
2023-02-01T13:25:24.065Z,101333.19
2023-02-01T13:27:54.109Z,101335.78
2023-02-01T13:30:33.990Z,101343.84
2023-02-01T13:33:52.257Z,101337.44
2023-02-01T13:36:48.652Z,101323.34
2023-02-01T13:39:21.705Z,101330.31
2023-02-01T13:42:03.490Z,101336.25
2023-02-01T13:44:34.376Z,101333.59
2023-02-01T13:47:04.059Z,101329.91
2023-02-01T13:49:39.661Z,101327.31
2023-02-01T13:52:06.241Z,101304.97
2023-02-01T13:54:35.733Z,101329.63
2023-02-01T13:57:03.996Z,101334.03
2023-02-01T13:59:40.407Z,101328.75
2023-02-01T14:02:47.246Z,101320.50
2023-02-01T14:05:22.730Z,101325.19
2023-02-01T14:08:10.579Z,101333.16
2023-02-01T14:10:48.574Z,101326.91
2023-02-01T14:13:36.825Z,101343.81
2023-02-01T14:16:03.217Z,101331.06
2023-02-01T14:18:35.683Z,101325.63
2023-02-01T14:21:30.200Z,101331.81
2023-02-01T14:24:08.527Z,101336.84
2023-02-01T14:26:37.894Z,101324.47
2023-02-01T14:29:23.385Z,101336.97
2023-02-01T14:31:56.915Z,101340.66
2023-02-01T14:34:48.817Z,101326.13
2023-02-01T14:37:18.227Z,101343.75
2023-02-01T14:39:47.742Z,101339.28
2023-02-01T14:42:25.591Z,101334.63
2023-02-01T14:44:59.006Z,101340.72
2023-02-01T14:47:28.492Z,101348.72
2023-02-01T14:50:07.096Z,101346.00
2023-02-01T14:52:44.438Z,101355.78
2023-02-01T14:55:26.129Z,101356.44
2023-02-01T14:57:56.710Z,101353.97
2023-02-01T15:00:23.069Z,101349.94
2023-02-01T15:02:50.789Z,101363.38
2023-02-01T15:05:24.203Z,101360.88
2023-02-01T15:07:52.943Z,101352.69
2023-02-01T15:10:22.012Z,101357.81
2023-02-01T15:12:50.213Z,101361.16
2023-02-01T15:15:23.895Z,101361.16
2023-02-01T15:18:00.783Z,101364.84
2023-02-01T15:20:32.886Z,101381.59
2023-02-01T15:23:02.700Z,101372.63
2023-02-01T15:25:36.270Z,101358.44
2023-02-01T15:28:02.625Z,101359.16
2023-02-01T15:30:32.181Z,101321.81
2023-02-01T15:33:08.397Z,101347.78
2023-02-01T15:35:44.120Z,101348.72
2023-02-01T15:38:31.625Z,101359.09
2023-02-01T15:41:00.755Z,101345.63
2023-02-01T15:43:29.487Z,101358.13
2023-02-01T15:46:02.323Z,101354.41
2023-02-01T15:48:36.606Z,101349.88
2023-02-01T15:51:03.970Z,101362.41
2023-02-01T15:53:32.006Z,101358.66
2023-02-01T15:56:02.576Z,101363.84
2023-02-01T15:58:29.531Z,101351.69
2023-02-01T16:01:03.025Z,101365.28
2023-02-01T16:03:44.754Z,101358.94
2023-02-01T16:06:27.441Z,101359.94
2023-02-01T16:09:01.577Z,101359.34
2023-02-01T16:11:33.775Z,101366.94
2023-02-01T16:14:01.414Z,101362.53
2023-02-01T16:16:30.521Z,101357.28
2023-02-01T16:18:57.065Z,101358.22
2023-02-01T16:21:23.987Z,101353.56
2023-02-01T16:23:51.874Z,101354.63
2023-02-01T16:26:18.915Z,101360.81
2023-02-01T16:28:45.724Z,101362.53
2023-02-01T16:31:20.555Z,101371.75
2023-02-01T16:33:51.449Z,101358.59
2023-02-01T16:36:19.275Z,101355.19
2023-02-01T16:38:47.471Z,101353.59
2023-02-01T16:41:15.450Z,101357.47
2023-02-01T16:43:41.991Z,101356.03
2023-02-01T16:46:15.937Z,101342.47
2023-02-01T16:48:46.908Z,101347.91
2023-02-01T16:51:17.055Z,101333.72
2023-02-01T16:53:53.881Z,101353.06
2023-02-01T16:56:30.724Z,101347.16
2023-02-01T16:58:57.368Z,101415.47
2023-02-01T17:01:24.677Z,101441.38
2023-02-01T17:03:51.260Z,101450.88
2023-02-01T17:06:20.781Z,101455.97
2023-02-01T17:08:50.954Z,101477.53
2023-02-01T17:11:18.549Z,101458.50
2023-02-01T17:13:46.283Z,101456.00
2023-02-01T17:16:18.688Z,101461.47
2023-02-01T17:19:07.925Z,101452.47
2023-02-01T17:21:42.688Z,101457.72
2023-02-01T17:24:14.117Z,101468.94
2023-02-01T17:26:41.358Z,101456.41
2023-02-01T17:29:07.853Z,101480.03
2023-02-01T17:31:39.205Z,101455.16
2023-02-01T17:34:05.574Z,101459.78
2023-02-01T17:36:31.920Z,101454.88
2023-02-01T17:39:05.839Z,101448.56
2023-02-01T17:41:33.586Z,101457.69
2023-02-01T17:44:00.241Z,101461.50
2023-02-01T17:46:27.340Z,101435.22
2023-02-01T17:48:54.827Z,101430.47
2023-02-01T17:51:23.863Z,101429.41
2023-02-01T17:53:50.412Z,101432.75
2023-02-01T17:56:20.366Z,101436.28
2023-02-01T17:58:47.692Z,101440.59
2023-02-01T18:01:17.970Z,101436.31
2023-02-01T18:03:44.525Z,101410.00
2023-02-01T18:06:19.322Z,101439.31
2023-02-01T18:08:46.112Z,101451.50
2023-02-01T18:11:21.496Z,101440.84
2023-02-01T18:13:49.017Z,101433.31
2023-02-01T18:16:29.293Z,101427.91
2023-02-01T18:19:01.712Z,101421.84
2023-02-01T18:21:38.563Z,101452.69
2023-02-01T18:24:05.244Z,101520.31
2023-02-01T18:26:31.634Z,101525.50
2023-02-01T18:28:58.132Z,101518.44
2023-02-01T18:31:27.726Z,101519.91
2023-02-01T18:33:55.514Z,101516.28
2023-02-01T18:36:22.723Z,101522.94
2023-02-01T18:38:49.118Z,101470.13
2023-02-01T18:41:23.022Z,101514.13
2023-02-01T18:43:50.972Z,101503.53
2023-02-01T18:46:17.949Z,101508.63
2023-02-01T18:48:44.561Z,101499.03
2023-02-01T18:51:13.132Z,101498.25
2023-02-01T18:53:40.046Z,101499.91
2023-02-01T18:56:06.988Z,101502.59
2023-02-01T18:58:33.322Z,101495.16
2023-02-01T19:01:06.353Z,101498.63
2023-02-01T19:03:32.746Z,101504.66
2023-02-01T19:06:07.769Z,101504.31
2023-02-01T19:08:34.473Z,101486.38
2023-02-01T19:11:05.305Z,101492.03
2023-02-01T19:13:31.795Z,101484.34
2023-02-01T19:15:58.240Z,101486.44
2023-02-01T19:18:24.622Z,101487.53
2023-02-01T19:20:51.378Z,101490.78
2023-02-01T19:23:18.743Z,101503.31
2023-02-01T19:25:46.866Z,101476.91
2023-02-01T19:28:14.088Z,101490.03
2023-02-01T19:30:40.460Z,101490.22
2023-02-01T19:33:07.029Z,101503.25
2023-02-01T19:35:33.559Z,101524.03
2023-02-01T19:37:59.998Z,101560.19
2023-02-01T19:40:26.597Z,101575.41
2023-02-01T19:42:53.301Z,101564.31
2023-02-01T19:45:19.716Z,101553.50
2023-02-01T19:47:46.168Z,101566.03
2023-02-01T19:50:18.023Z,101562.78
2023-02-01T19:52:45.647Z,101537.50
2023-02-01T19:55:13.025Z,101532.25
2023-02-01T19:57:39.953Z,101530.53
2023-02-01T20:00:08.087Z,101511.16
2023-02-01T20:02:34.060Z,101509.31
2023-02-01T20:05:00.533Z,101511.94
2023-02-01T20:07:26.962Z,101509.22
2023-02-01T20:09:53.413Z,101517.00
2023-02-01T20:12:19.773Z,101518.78
2023-02-01T20:14:46.250Z,101516.94
2023-02-01T20:17:14.866Z,101510.84
2023-02-01T20:19:41.262Z,101505.19
2023-02-01T20:22:07.643Z,101497.91
2023-02-01T20:24:34.108Z,101506.31
2023-02-01T20:27:01.335Z,101512.41
2023-02-01T20:29:27.722Z,101519.22
2023-02-01T20:31:54.128Z,101514.34
2023-02-01T20:34:20.810Z,101510.53
2023-02-01T20:36:47.160Z,101526.25
2023-02-01T20:39:13.876Z,101513.00
2023-02-01T20:41:41.080Z,101516.50
2023-02-01T20:44:07.472Z,101528.81
2023-02-01T20:46:35.064Z,101523.63
2023-02-01T20:49:01.445Z,101511.25
2023-02-01T20:51:27.880Z,101528.09
2023-02-01T20:53:55.206Z,101524.50
2023-02-01T20:56:21.743Z,101520.03
2023-02-01T20:58:48.241Z,101516.50
2023-02-01T21:01:15.387Z,101513.91
2023-02-01T21:03:41.941Z,101515.72
2023-02-01T21:06:10.153Z,101519.41
2023-02-01T21:08:36.545Z,101517.63
2023-02-01T21:11:09.083Z,101528.00
2023-02-01T21:13:42.621Z,101533.31
2023-02-01T21:16:11.514Z,101545.88
2023-02-01T21:18:38.696Z,101560.00
2023-02-01T21:21:06.817Z,101581.16
2023-02-01T21:23:33.580Z,101599.06
2023-02-01T21:26:03.034Z,101592.84
2023-02-01T21:28:29.459Z,101583.13
2023-02-01T21:30:55.958Z,101581.53
2023-02-01T21:33:22.383Z,101574.75
2023-02-01T21:35:51.437Z,101562.66
2023-02-01T21:38:17.872Z,101575.28
2023-02-01T21:40:44.262Z,101570.00
2023-02-01T21:43:10.595Z,101583.28
2023-02-01T21:45:38.287Z,101592.25
2023-02-01T21:48:06.944Z,101603.91
2023-02-01T21:50:35.133Z,101603.88
2023-02-01T21:53:01.786Z,101610.75
2023-02-01T21:55:28.134Z,101621.34
2023-02-01T21:57:54.479Z,101612.50
2023-02-01T22:00:21.084Z,101596.59
2023-02-01T22:02:47.487Z,101601.00
2023-02-01T22:05:14.682Z,101605.31
2023-02-01T22:07:41.130Z,101599.91
2023-02-01T22:10:07.894Z,101607.69
2023-02-01T22:12:34.324Z,101611.13
2023-02-01T22:15:00.696Z,101606.59
2023-02-01T22:17:27.245Z,101607.31
2023-02-01T22:19:53.611Z,101607.28
2023-02-01T22:22:19.955Z,101601.88
2023-02-01T22:24:46.308Z,101580.66
2023-02-01T22:27:14.169Z,101601.75
2023-02-01T22:29:42.240Z,101599.06
2023-02-01T22:32:08.753Z,101604.34
2023-02-01T22:34:35.192Z,101617.78
2023-02-01T22:37:01.582Z,101610.53
2023-02-01T22:39:27.956Z,101613.34
2023-02-01T22:41:54.518Z,101630.78
2023-02-01T22:44:21.059Z,101632.56
2023-02-01T22:46:47.488Z,101618.44
2023-02-01T22:49:13.852Z,101634.47
2023-02-01T22:51:40.399Z,101628.25
2023-02-01T22:54:06.880Z,101634.34
2023-02-01T22:56:35.566Z,101631.69
2023-02-01T22:59:05.460Z,101641.25
2023-02-01T23:01:33.385Z,101641.47
2023-02-01T23:04:01.739Z,101638.81
2023-02-01T23:06:29.103Z,101636.16
2023-02-01T23:08:57.746Z,101614.69
2023-02-01T23:11:25.231Z,101648.09
2023-02-01T23:13:52.305Z,101642.78
2023-02-01T23:16:18.759Z,101627.72
2023-02-01T23:18:45.640Z,101632.91
2023-02-01T23:21:17.990Z,101633.72
2023-02-01T23:23:49.493Z,101650.63
2023-02-01T23:26:16.791Z,101632.88
2023-02-01T23:28:43.979Z,101627.56
2023-02-01T23:31:12.857Z,101639.88
2023-02-01T23:33:40.344Z,101634.31
2023-02-01T23:36:10.872Z,101641.44
2023-02-01T23:38:37.298Z,101635.38
2023-02-01T23:41:06.352Z,101643.19
2023-02-01T23:43:52.250Z,101631.91
2023-02-01T23:46:18.898Z,101621.47
2023-02-01T23:48:47.839Z,101626.78
2023-02-01T23:51:15.176Z,101618.78
2023-02-01T23:53:41.512Z,101618.78
2023-02-01T23:56:08.323Z,101624.94
2023-02-01T23:58:34.693Z,101626.00
